Time;durP1;ratioP1;P1;durP2;ratioP2;P2;SDS_P1;SDS_P2;PMS_P1;PMS_P2;Temp;Humidity;BMP_temperature;BMP_pressure;BME280_temperature;BME280_humidity;BME280_pressure;Samples;Min_cycle;Max_cycle;Signal;HPM_P1;HPM_P2
2024/01/27 00:00:39;;;;;;;11.77;4.47;;;;;;;4.32;100.00;103405.03;5258733;28;20407;-78
2024/01/27 00:03:11;;;;;;;13.32;4.40;;;;;;;4.30;100.00;103404.19;5259714;28;20210;-78
2024/01/27 00:05:43;;;;;;;11.55;4.53;;;;;;;4.24;100.00;103406.03;5252431;28;20036;-78
2024/01/27 00:08:14;;;;;;;13.63;5.18;;;;;;;4.25;100.00;103400.84;5252231;28;20046;-78
2024/01/27 00:10:46;;;;;;;13.65;4.78;;;;;;;4.16;100.00;103390.59;5257716;28;20043;-78
2024/01/27 00:13:18;;;;;;;15.20;4.68;;;;;;;4.23;100.00;103401.72;5258620;28;20028;-78
2024/01/27 00:15:51;;;;;;;10.88;4.45;;;;;;;4.26;100.00;103391.31;5252998;28;20039;-78
2024/01/27 00:18:23;;;;;;;13.88;4.88;;;;;;;4.22;100.00;103384.47;5250874;28;20040;-78
2024/01/27 00:20:55;;;;;;;13.32;4.53;;;;;;;4.20;100.00;103386.22;5252977;28;20033;-78
2024/01/27 00:23:27;;;;;;;11.70;4.60;;;;;;;4.13;100.00;103383.75;5249389;28;20393;-78
2024/01/27 00:25:58;;;;;;;14.43;4.70;;;;;;;4.10;100.00;103375.16;5255821;28;20043;-78
2024/01/27 00:28:30;;;;;;;13.13;4.97;;;;;;;4.09;100.00;103384.66;5252825;28;20421;-77
2024/01/27 00:31:02;;;;;;;11.95;4.65;;;;;;;4.05;100.00;103389.91;5253310;28;20036;-78
2024/01/27 00:33:36;;;;;;;14.02;4.82;;;;;;;4.13;100.00;103390.66;5258782;28;20470;-78
2024/01/27 00:36:07;;;;;;;13.68;4.30;;;;;;;4.08;100.00;103393.31;5252978;28;20028;-77
2024/01/27 00:38:39;;;;;;;10.93;5.00;;;;;;;4.06;100.00;103404.63;5253287;28;20450;-77
2024/01/27 00:41:18;;;;;;;15.93;4.47;;;;;;;4.21;100.00;103404.38;5255115;28;20032;-78
2024/01/27 00:43:50;;;;;;;11.57;4.50;;;;;;;4.06;100.00;103404.63;5255071;28;20044;-78
2024/01/27 00:46:22;;;;;;;16.90;5.10;;;;;;;4.08;100.00;103415.81;5251384;28;20268;-78
2024/01/27 00:48:53;;;;;;;13.80;5.18;;;;;;;4.05;100.00;103414.16;5253375;28;20093;-78
2024/01/27 00:51:25;;;;;;;13.88;4.80;;;;;;;4.00;100.00;103420.28;5253914;28;20049;-78
2024/01/27 00:53:57;;;;;;;10.43;4.90;;;;;;;3.98;100.00;103407.34;5252623;28;20482;-78
2024/01/27 00:56:29;;;;;;;10.93;4.80;;;;;;;3.97;100.00;103415.13;5253237;28;20033;-78
2024/01/27 00:59:01;;;;;;;15.40;5.32;;;;;;;3.92;100.00;103415.19;5253378;28;20044;-78
2024/01/27 01:01:33;;;;;;;13.75;4.82;;;;;;;3.91;100.00;103408.31;5258051;28;20454;-77
2024/01/27 01:04:07;;;;;;;13.38;4.57;;;;;;;3.90;100.00;103414.34;5251912;28;20037;-78
2024/01/27 01:06:40;;;;;;;15.70;5.15;;;;;;;3.89;100.00;103413.50;5258841;28;20533;-78
2024/01/27 01:09:12;;;;;;;14.35;5.50;;;;;;;3.90;100.00;103412.66;5244026;28;20036;-78
2024/01/27 01:11:43;;;;;;;12.57;4.68;;;;;;;3.84;100.00;103420.50;5253642;28;20048;-77
2024/01/27 01:14:15;;;;;;;11.32;5.00;;;;;;;3.81;100.00;103414.50;5251480;28;20519;-78
2024/01/27 01:16:47;;;;;;;16.08;5.28;;;;;;;3.84;100.00;103427.44;5252443;28;20029;-78
2024/01/27 01:19:19;;;;;;;14.90;5.32;;;;;;;3.84;100.00;103424.84;5256373;28;20035;-78
2024/01/27 01:21:51;;;;;;;13.23;5.13;;;;;;;3.80;100.00;103413.66;5255073;28;20033;-78
2024/01/27 01:24:23;;;;;;;13.02;4.97;;;;;;;3.80;100.00;103421.44;5248614;28;20036;-77
2024/01/27 01:26:55;;;;;;;14.30;5.47;;;;;;;3.80;100.00;103423.19;5251638;28;20028;-77
2024/01/27 01:29:27;;;;;;;16.08;5.80;;;;;;;3.70;100.00;103404.28;5255620;28;20048;-78
2024/01/27 01:31:59;;;;;;;14.05;5.18;;;;;;;3.80;100.00;103412.81;5251262;28;20037;-78
2024/01/27 01:34:31;;;;;;;13.30;4.90;;;;;;;3.76;100.00;103416.31;5249987;28;20037;-77
2024/01/27 01:37:03;;;;;;;13.00;5.05;;;;;;;3.77;100.00;103418.03;5252572;28;20040;-78
2024/01/27 01:39:35;;;;;;;14.75;5.70;;;;;;;3.70;100.00;103419.00;5257309;28;20059;-78
2024/01/27 01:42:07;;;;;;;14.70;5.20;;;;;;;3.68;100.00;103415.59;5250423;28;20048;-78
2024/01/27 01:44:39;;;;;;;14.82;5.72;;;;;;;3.65;100.00;103425.09;5256957;28;20059;-77
2024/01/27 01:47:11;;;;;;;11.73;5.30;;;;;;;3.66;100.00;103419.03;5255230;28;20029;-78
2024/01/27 01:49:43;;;;;;;15.20;4.68;;;;;;;3.63;100.00;103421.66;5250757;28;20083;-78
2024/01/27 01:52:20;;;;;;;14.15;5.07;;;;;;;3.62;100.00;103427.75;5251481;28;20076;-78
2024/01/27 01:54:51;;;;;;;14.85;5.57;;;;;;;3.64;100.00;103430.31;5250960;28;20036;-78
2024/01/27 01:57:23;;;;;;;11.35;4.95;;;;;;;3.62;100.00;103427.75;5248766;28;20129;-77
2024/01/27 01:59:55;;;;;;;13.88;4.63;;;;;;;3.60;100.00;103432.09;5252945;28;20036;-78
2024/01/27 02:02:28;;;;;;;16.05;5.47;;;;;;;3.62;100.00;103430.34;5249416;28;20040;-77
2024/01/27 02:05:01;;;;;;;13.23;6.28;;;;;;;3.63;100.00;103429.44;5255874;28;20041;-77
2024/01/27 02:07:33;;;;;;;17.05;5.10;;;;;;;3.61;100.00;103420.00;5256502;28;20510;-78
2024/01/27 02:10:12;;;;;;;10.40;5.50;;;;;;;3.67;100.00;103419.88;5255181;28;20028;-78
2024/01/27 02:12:45;;;;;;;17.70;6.00;;;;;;;3.61;100.00;103428.63;5256577;28;20029;-78
2024/01/27 02:15:17;;;;;;;16.70;6.30;;;;;;;3.61;100.00;103427.78;5252030;28;20037;-78
2024/01/27 02:17:48;;;;;;;16.13;5.57;;;;;;;3.59;100.00;103424.34;5254321;28;20039;-78
2024/01/27 02:20:20;;;;;;;14.38;5.88;;;;;;;3.63;100.00;103434.63;5253298;28;20040;-78
2024/01/27 02:22:52;;;;;;;17.20;6.20;;;;;;;3.62;100.00;103430.34;5253179;28;20306;-78
2024/01/27 02:25:24;;;;;;;13.52;5.05;;;;;;;3.57;100.00;103433.88;5255674;28;20028;-78
2024/01/27 02:27:56;;;;;;;12.43;4.95;;;;;;;3.58;100.00;103430.41;5256755;28;20028;-78
2024/01/27 02:30:28;;;;;;;12.70;5.07;;;;;;;3.48;100.00;103421.03;5257611;28;20020;-78
2024/01/27 02:33:00;;;;;;;17.52;5.38;;;;;;;3.58;100.00;103433.00;5250852;28;20410;-78
2024/01/27 02:35:32;;;;;;;10.43;4.90;;;;;;;3.61;100.00;103441.59;5255304;28;20033;-78
2024/01/27 02:38:04;;;;;;;13.88;5.72;;;;;;;3.63;100.00;103436.38;5253798;28;20037;-78
2024/01/27 02:40:37;;;;;;;14.68;5.53;;;;;;;3.63;100.00;103439.81;5257979;28;20421;-78
2024/01/27 02:43:09;;;;;;;13.75;5.72;;;;;;;3.63;100.00;103433.78;5254776;28;20040;-78
2024/01/27 02:45:40;;;;;;;12.75;5.72;;;;;;;3.59;100.00;103432.09;5248516;28;20394;-78
2024/01/27 02:48:12;;;;;;;11.50;5.20;;;;;;;3.60;100.00;103431.25;5253678;28;20033;-78
2024/01/27 02:50:44;;;;;;;14.07;5.85;;;;;;;3.59;100.00;103427.78;5255870;28;20044;-78
2024/01/27 02:53:16;;;;;;;14.23;6.07;;;;;;;3.57;100.00;103433.88;5260321;28;20024;-79
2024/01/27 02:55:48;;;;;;;9.70;4.97;;;;;;;3.59;100.00;103429.50;5255329;28;20033;-78
2024/01/27 02:58:20;;;;;;;11.57;5.60;;;;;;;3.56;100.00;103430.44;5258952;28;20031;-78
2024/01/27 03:00:52;;;;;;;15.90;5.63;;;;;;;3.55;100.00;103433.03;5256882;28;20482;-78
2024/01/27 03:03:24;;;;;;;12.02;5.57;;;;;;;3.48;100.00;103428.81;5258795;28;20051;-78
2024/01/27 03:05:56;;;;;;;13.75;5.03;;;;;;;3.54;100.00;103431.31;5253762;28;20700;-78
2024/01/27 03:08:28;;;;;;;15.68;5.80;;;;;;;3.53;100.00;103430.47;5255892;28;20703;-77
2024/01/27 03:11:00;;;;;;;12.98;6.07;;;;;;;3.52;100.00;103430.47;5259705;28;20043;-78
2024/01/27 03:13:31;;;;;;;14.65;5.82;;;;;;;3.53;100.00;103434.81;5259686;28;20037;-77
2024/01/27 03:16:08;;;;;;;14.43;5.53;;;;;;;3.60;100.00;103436.44;5258493;28;20036;-77
2024/01/27 03:18:40;;;;;;;11.75;5.07;;;;;;;3.45;100.00;103434.91;5256561;28;20041;-77
2024/01/27 03:21:12;;;;;;;11.55;4.68;;;;;;;3.43;100.00;103439.25;5256973;28;20039;-78
2024/01/27 03:23:44;;;;;;;14.85;5.07;;;;;;;3.41;100.00;103438.41;5267584;28;20478;-78
2024/01/27 03:26:17;;;;;;;12.55;5.28;;;;;;;3.34;100.00;103436.78;5261625;28;20036;-78
2024/01/27 03:28:49;;;;;;;14.37;6.00;;;;;;;3.36;100.00;103435.00;5258285;28;20034;-78
2024/01/27 03:31:20;;;;;;;14.35;4.68;;;;;;;3.33;100.00;103438.53;5254056;28;20371;-78
2024/01/27 03:33:52;;;;;;;11.35;5.03;;;;;;;3.29;100.00;103441.16;5250337;28;20382;-78
2024/01/27 03:36:24;;;;;;;10.63;4.85;;;;;;;3.17;100.00;103427.47;5255261;28;20234;-78
2024/01/27 03:38:58;;;;;;;14.73;5.35;;;;;;;3.27;100.00;103453.28;5252944;28;20037;-78
2024/01/27 03:41:31;;;;;;;13.00;5.10;;;;;;;3.27;100.00;103454.13;5258088;28;20036;-78
2024/01/27 03:44:03;;;;;;;13.05;5.35;;;;;;;3.22;100.00;103449.88;5255761;28;20045;-78
2024/01/27 03:46:35;;;;;;;14.68;5.65;;;;;;;3.22;100.00;103447.28;5257628;28;20036;-78
2024/01/27 03:49:07;;;;;;;13.13;4.93;;;;;;;3.21;100.00;103442.97;5255544;28;20039;-78
2024/01/27 03:51:39;;;;;;;13.32;4.65;;;;;;;3.20;100.00;103436.94;5256349;28;20418;-78
2024/01/27 03:54:11;;;;;;;13.90;5.07;;;;;;;3.15;100.00;103439.59;5255522;28;20025;-78
2024/01/27 03:56:42;;;;;;;12.25;4.43;;;;;;;3.17;100.00;103437.81;5263710;28;20063;-81
2024/01/27 03:59:14;;;;;;;11.43;4.78;;;;;;;3.17;100.00;103437.81;5264795;28;20032;-81
2024/01/27 04:01:47;;;;;;;11.57;4.97;;;;;;;3.19;100.00;103440.41;5260491;28;20036;-81
2024/01/27 04:04:19;;;;;;;14.35;4.50;;;;;;;3.17;100.00;103436.97;5260519;28;20541;-80
2024/01/27 04:06:50;;;;;;;11.90;5.45;;;;;;;3.16;100.00;103451.66;5262074;28;20036;-80
2024/01/27 04:09:23;;;;;;;18.17;5.20;;;;;;;3.13;100.00;103456.88;5257658;28;20040;-79
2024/01/27 04:11:56;;;;;;;14.45;4.82;;;;;;;3.16;100.00;103450.81;5252385;28;20040;-78
2024/01/27 04:14:28;;;;;;;14.38;4.85;;;;;;;3.08;100.00;103450.06;5255510;28;20049;-79
2024/01/27 04:17:00;;;;;;;12.45;4.57;;;;;;;3.11;100.00;103450.88;5256633;28;20043;-79
2024/01/27 04:19:32;;;;;;;10.05;4.40;;;;;;;3.09;100.00;103452.59;5251422;28;20044;-79
2024/01/27 04:22:04;;;;;;;13.55;5.10;;;;;;;3.06;100.00;103454.38;5257616;28;20397;-79
2024/01/27 04:24:35;;;;;;;11.45;4.50;;;;;;;3.00;100.00;103449.28;5256081;28;20029;-79
2024/01/27 04:27:07;;;;;;;11.00;4.25;;;;;;;3.03;100.00;103455.28;5257663;28;20040;-79
2024/01/27 04:29:39;;;;;;;13.05;4.78;;;;;;;2.99;100.00;103456.16;5255229;28;20048;-79
2024/01/27 04:32:12;;;;;;;11.27;4.88;;;;;;;2.91;100.00;103452.81;5259230;28;20054;-79
2024/01/27 04:34:44;;;;;;;11.43;4.43;;;;;;;2.93;100.00;103448.50;5251953;28;20044;-79
2024/01/27 04:37:16;;;;;;;15.00;4.95;;;;;;;2.87;100.00;103445.94;5255079;28;20485;-79
2024/01/27 04:39:48;;;;;;;13.13;4.78;;;;;;;2.89;100.00;103446.81;5254982;28;20038;-79
2024/01/27 04:42:20;;;;;;;12.93;4.85;;;;;;;2.91;100.00;103451.06;5257536;28;20040;-78
2024/01/27 04:44:52;;;;;;;11.70;5.22;;;;;;;2.87;100.00;103459.75;5254897;28;20532;-78
2024/01/27 04:47:24;;;;;;;11.27;4.65;;;;;;;2.89;100.00;103459.75;5258509;28;20029;-78
2024/01/27 04:49:57;;;;;;;10.57;4.57;;;;;;;2.88;100.00;103458.06;5256894;28;20028;-78
2024/01/27 04:52:29;;;;;;;15.27;5.05;;;;;;;2.91;100.00;103458.00;5255006;28;20048;-78
2024/01/27 04:55:01;;;;;;;11.35;4.72;;;;;;;2.88;100.00;103453.72;5256013;28;20487;-78
2024/01/27 04:57:33;;;;;;;13.10;5.50;;;;;;;2.92;100.00;103457.13;5256574;28;20033;-78
2024/01/27 05:00:10;;;;;;;11.15;4.93;;;;;;;2.90;100.00;103454.53;5257120;28;20055;-79
2024/01/27 05:02:42;;;;;;;14.20;5.22;;;;;;;2.88;100.00;103455.47;5254971;28;20036;-78
2024/01/27 05:05:14;;;;;;;12.90;5.03;;;;;;;2.86;100.00;103452.00;5254078;28;20032;-78
2024/01/27 05:07:47;;;;;;;17.38;5.75;;;;;;;2.82;100.00;103446.00;5256887;28;20371;-78
2024/01/27 05:10:19;;;;;;;;;;;;;;;3.44;100.00;103455.63;5255564;28;20028;-78
2024/01/27 05:12:51;;;;;;;14.35;4.60;;;;;;;2.79;100.00;103437.41;5256191;28;19913;-78
2024/01/27 05:15:23;;;;;;;11.75;5.78;;;;;;;2.82;100.00;103458.09;5250498;28;20033;-78
2024/01/27 05:17:55;;;;;;;12.23;5.70;;;;;;;2.70;100.00;103435.78;5257101;28;20028;-78
2024/01/27 05:20:27;;;;;;;13.95;5.28;;;;;;;2.78;100.00;103456.41;5256575;28;20044;-78
2024/01/27 05:22:58;;;;;;;9.27;5.30;;;;;;;2.81;100.00;103457.25;5255962;28;20043;-78
2024/01/27 05:25:30;;;;;;;10.23;4.35;;;;;;;2.77;100.00;103452.13;5252675;28;20042;-77
2024/01/27 05:28:02;;;;;;;12.05;5.25;;;;;;;2.83;100.00;103458.06;5253165;28;20403;-78
2024/01/27 05:30:34;;;;;;;17.25;5.68;;;;;;;2.80;100.00;103457.25;5257697;28;20036;-78
2024/01/27 05:33:06;;;;;;;12.35;4.93;;;;;;;2.77;100.00;103454.72;5257809;28;20032;-78
2024/01/27 05:35:38;;;;;;;11.88;5.97;;;;;;;2.78;100.00;103453.81;5256646;28;20514;-78
2024/01/27 05:38:10;;;;;;;11.45;5.25;;;;;;;2.78;100.00;103453.81;5255521;28;20414;-78
2024/01/27 05:40:42;;;;;;;14.80;5.18;;;;;;;2.70;100.00;103443.56;5256359;28;20187;-78
2024/01/27 05:43:14;;;;;;;11.52;5.60;;;;;;;2.72;100.00;103440.94;5255960;28;20741;-78
2024/01/27 05:45:46;;;;;;;12.90;5.05;;;;;;;2.71;100.00;103434.91;5253600;28;20427;-77
2024/01/27 05:48:18;;;;;;;15.67;5.27;;;;;;;2.73;100.00;103438.34;5255429;28;20767;-78
2024/01/27 05:50:58;;;;;;;14.27;5.25;;;;;;;2.82;100.00;103432.22;5251868;28;20049;-78
2024/01/27 05:53:29;;;;;;;12.23;5.35;;;;;;;2.70;100.00;103434.94;5255205;28;20041;-78
2024/01/27 05:56:01;;;;;;;10.73;5.57;;;;;;;2.64;100.00;103428.06;5254718;28;20381;-78
2024/01/27 05:58:33;;;;;;;13.52;6.00;;;;;;;2.71;100.00;103427.13;5252623;28;20120;-78
2024/01/27 06:01:05;;;;;;;12.90;6.00;;;;;;;2.71;100.00;103436.63;5256176;28;20052;-78
2024/01/27 06:03:37;;;;;;;15.65;5.93;;;;;;;2.61;100.00;103430.69;5255084;28;20036;-78
2024/01/27 06:06:09;;;;;;;13.68;5.35;;;;;;;2.69;100.00;103439.25;5254969;28;20040;-78
2024/01/27 06:08:41;;;;;;;15.65;6.38;;;;;;;2.66;100.00;103440.13;5253976;28;20832;-78
2024/01/27 06:11:13;;;;;;;17.15;5.55;;;;;;;2.59;100.00;103420.38;5256834;28;20323;-78
2024/01/27 06:13:47;;;;;;;12.57;6.22;;;;;;;2.61;100.00;103426.41;5253903;28;20436;-77
2024/01/27 06:16:19;;;;;;;15.93;5.75;;;;;;;2.65;100.00;103430.66;5252684;28;20032;-78
2024/01/27 06:18:51;;;;;;;15.82;6.53;;;;;;;2.62;100.00;103429.84;5255476;28;20090;-78
2024/01/27 06:21:23;;;;;;;10.30;5.50;;;;;;;2.64;100.00;103435.84;5254282;28;20028;-77
2024/01/27 06:23:55;;;;;;;13.23;6.03;;;;;;;2.64;100.00;103436.69;5251583;28;20158;-79
2024/01/27 06:26:27;;;;;;;12.98;5.90;;;;;;;2.63;100.00;103422.03;5255630;28;20393;-78
2024/01/27 06:29:00;;;;;;;13.35;5.75;;;;;;;2.63;100.00;103434.13;5257031;28;20039;-77
2024/01/27 06:31:33;;;;;;;13.55;6.32;;;;;;;2.65;100.00;103441.00;5257865;28;20486;-78
2024/01/27 06:34:05;;;;;;;12.52;5.88;;;;;;;2.63;100.00;103440.16;5258005;28;20393;-77
2024/01/27 06:36:37;;;;;;;13.00;5.50;;;;;;;2.64;100.00;103431.50;5256955;28;20035;-78
2024/01/27 06:39:09;;;;;;;14.57;6.07;;;;;;;2.60;100.00;103432.41;5257181;28;20224;-78
2024/01/27 06:41:41;;;;;;;13.07;6.22;;;;;;;2.59;100.00;103446.25;5259299;28;20039;-77
2024/01/27 06:44:13;;;;;;;11.90;6.43;;;;;;;2.60;100.00;103440.19;5260160;28;20028;-77
2024/01/27 06:46:49;;;;;;;17.73;6.85;;;;;;;2.61;100.00;103452.28;5256313;28;20033;-78
2024/01/27 06:49:21;;;;;;;14.52;6.15;;;;;;;2.62;100.00;103453.13;5259921;28;20035;-78
2024/01/27 06:51:53;;;;;;;15.23;6.22;;;;;;;2.59;100.00;103454.00;5259736;28;20044;-79
2024/01/27 06:54:25;;;;;;;14.45;7.07;;;;;;;2.58;100.00;103456.63;5256726;28;20039;-77
2024/01/27 06:56:59;;;;;;;17.83;7.13;;;;;;;2.54;100.00;103462.66;5257483;28;20037;-78
2024/01/27 06:59:31;;;;;;;13.55;6.00;;;;;;;2.55;100.00;103473.03;5255236;28;20402;-77
2024/01/27 07:02:03;;;;;;;16.45;6.45;;;;;;;2.54;100.00;103483.38;5257231;28;20040;-77
2024/01/27 07:04:35;;;;;;;14.80;6.97;;;;;;;2.52;100.00;103474.78;5256314;28;20029;-78
2024/01/27 07:07:07;;;;;;;12.43;5.57;;;;;;;2.54;100.00;103479.09;5256969;28;20047;-77
2024/01/27 07:09:39;;;;;;;13.48;6.38;;;;;;;2.57;100.00;103478.16;5255178;28;20048;-77
2024/01/27 07:12:11;;;;;;;14.30;6.65;;;;;;;2.53;100.00;103485.09;5256386;28;20393;-78
2024/01/27 07:14:43;;;;;;;15.80;5.90;;;;;;;2.55;100.00;103483.38;5253560;28;20077;-77
2024/01/27 07:17:15;;;;;;;11.85;6.18;;;;;;;2.51;100.00;103476.50;5254562;28;20032;-78
2024/01/27 07:19:46;;;;;;;15.20;7.85;;;;;;;2.51;100.00;103473.94;5253564;28;20032;-79
2024/01/27 07:22:18;;;;;;;18.75;7.63;;;;;;;2.50;100.00;103479.97;5259572;28;20036;-77
2024/01/27 07:24:51;;;;;;;16.05;6.50;;;;;;;2.48;100.00;103486.88;5256467;28;20467;-77
2024/01/27 07:27:23;;;;;;;13.43;6.45;;;;;;;2.56;100.00;103489.41;5263594;28;20517;-78
2024/01/27 07:29:55;;;;;;;13.32;6.22;;;;;;;2.56;100.00;103487.66;5252869;28;20032;-78
2024/01/27 07:32:27;;;;;;;11.80;6.50;;;;;;;2.57;100.00;103483.34;5261242;28;20279;-77
2024/01/27 07:34:59;;;;;;;14.55;6.95;;;;;;;2.57;100.00;103485.94;5260390;28;20086;-77
2024/01/27 07:37:32;;;;;;;12.25;7.07;;;;;;;2.61;100.00;103497.97;5257618;28;20036;-77
2024/01/27 07:40:05;;;;;;;13.77;6.70;;;;;;;2.63;100.00;103497.09;5256466;28;20037;-79
2024/01/27 07:42:37;;;;;;;;;;;;;;;3.18;100.00;103495.66;5263886;28;20020;-79
2024/01/27 07:45:09;;;;;;;13.98;6.25;;;;;;;2.68;100.00;103494.47;5261440;28;19920;-77
2024/01/27 07:47:40;;;;;;;13.63;6.30;;;;;;;2.66;100.00;103494.50;5256136;28;20037;-77
2024/01/27 07:50:12;;;;;;;15.73;6.95;;;;;;;2.66;100.00;103502.25;5252764;28;20024;-78
2024/01/27 07:52:44;;;;;;;15.90;7.13;;;;;;;2.66;100.00;103504.84;5254633;28;20090;-78
2024/01/27 07:55:17;;;;;;;16.95;7.30;;;;;;;2.67;100.00;103503.97;5258468;28;20032;-78
2024/01/27 07:57:49;;;;;;;17.13;6.57;;;;;;;2.68;100.00;103507.41;5256476;28;20036;-77
2024/01/27 08:00:21;;;;;;;23.55;7.63;;;;;;;2.64;100.00;103501.41;5254413;28;20280;-78
2024/01/27 08:02:53;;;;;;;15.05;6.93;;;;;;;2.67;100.00;103500.53;5247289;28;20041;-78
2024/01/27 08:05:25;;;;;;;14.88;7.05;;;;;;;2.66;100.00;103504.00;5250083;28;20036;-78
2024/01/27 08:07:57;;;;;;;12.60;7.10;;;;;;;2.65;100.00;103494.47;5251091;28;20036;-78
2024/01/27 08:10:29;;;;;;;16.17;6.95;;;;;;;2.73;100.00;103486.66;5249712;28;20033;-78
2024/01/27 08:13:00;;;;;;;14.82;6.38;;;;;;;2.74;100.00;103489.25;5253707;28;20039;-78
2024/01/27 08:15:32;;;;;;;15.82;6.63;;;;;;;2.79;100.00;103490.03;5254914;28;20033;-78
2024/01/27 08:18:04;;;;;;;14.07;6.28;;;;;;;2.81;100.00;103495.22;5248820;28;20037;-77
2024/01/27 08:20:36;;;;;;;12.10;6.88;;;;;;;2.81;100.00;103485.72;5250310;28;20403;-78
2024/01/27 08:23:09;;;;;;;14.70;6.65;;;;;;;2.87;100.00;103490.81;5251091;28;20032;-78
2024/01/27 08:25:41;;;;;;;16.80;7.30;;;;;;;2.89;100.00;103480.47;5246549;28;20051;-78
2024/01/27 08:28:13;;;;;;;14.63;7.05;;;;;;;2.92;100.00;103483.03;5252372;28;20060;-78
2024/01/27 08:30:45;;;;;;;15.73;7.15;;;;;;;2.96;100.00;103483.84;5253019;28;20482;-78
2024/01/27 08:33:17;;;;;;;13.70;6.90;;;;;;;2.98;100.00;103482.09;5254465;28;20033;-78
2024/01/27 08:35:49;;;;;;;21.88;7.90;;;;;;;2.99;100.00;103487.25;5252368;28;20036;-78
2024/01/27 08:38:21;;;;;;;17.95;7.30;;;;;;;3.01;100.00;103485.50;5253422;28;20376;-77
2024/01/27 08:40:53;;;;;;;16.38;7.10;;;;;;;3.01;100.00;103487.25;5259090;28;20112;-78
2024/01/27 08:43:25;;;;;;;17.80;7.90;;;;;;;3.06;100.00;103496.66;5267355;28;20060;-78
2024/01/27 08:45:59;;;;;;;18.30;7.90;;;;;;;3.08;100.00;103494.06;5256018;28;20571;-78
2024/01/27 08:48:31;;;;;;;15.68;6.70;;;;;;;3.11;100.00;103501.81;5251316;28;20470;-78
2024/01/27 08:51:04;;;;;;;15.20;6.90;;;;;;;3.17;100.00;103505.19;5222905;28;1052376;-78
2024/01/27 08:53:36;;;;;;;17.65;7.38;;;;;;;3.20;100.00;103498.25;5255615;28;20036;-78
2024/01/27 08:56:08;;;;;;;14.98;7.22;;;;;;;3.19;100.00;103501.75;5257304;28;20553;-78
2024/01/27 08:58:40;;;;;;;16.35;7.82;;;;;;;3.29;100.00;103505.91;5254391;28;20036;-78
2024/01/27 09:01:14;;;;;;;13.48;7.00;;;;;;;3.35;100.00;103508.44;5255253;28;20029;-77
2024/01/27 09:03:46;;;;;;;15.60;7.00;;;;;;;3.30;100.00;103494.69;5257622;28;20033;-77
2024/01/27 09:06:18;;;;;;;15.23;7.10;;;;;;;3.40;100.00;103501.47;5248570;28;20039;-77
2024/01/27 09:08:50;;;;;;;16.88;6.75;;;;;;;3.47;100.00;103508.28;5250717;28;20040;-77
2024/01/27 09:11:23;;;;;;;17.17;7.00;;;;;;;3.53;100.00;103513.41;5250163;28;20111;-77
2024/01/27 09:13:56;;;;;;;17.75;6.93;;;;;;;3.55;100.00;103511.66;5256370;28;20021;-78
2024/01/27 09:16:27;;;;;;;15.80;7.35;;;;;;;3.60;100.00;103509.88;5255192;28;20032;-80
2024/01/27 09:19:00;;;;;;;14.20;6.45;;;;;;;3.68;100.00;103514.09;5253002;28;20029;-80
2024/01/27 09:21:32;;;;;;;14.60;6.72;;;;;;;3.72;100.00;103521.81;5254931;28;20038;-79
2024/01/27 09:24:04;;;;;;;17.17;7.90;;;;;;;3.76;100.00;103526.06;5258112;28;20036;-79
2024/01/27 09:26:36;;;;;;;19.73;7.60;;;;;;;3.83;100.00;103526.88;5255607;28;20536;-79
2024/01/27 09:29:09;;;;;;;19.02;7.22;;;;;;;3.90;100.00;103523.28;5251037;28;20029;-78
2024/01/27 09:31:41;;;;;;;16.35;7.72;;;;;;;3.92;100.00;103515.50;5251089;28;20028;-80
2024/01/27 09:34:13;;;;;;;17.05;7.30;;;;;;;4.01;100.00;103531.78;5255040;28;20378;-79
2024/01/27 09:36:45;;;;;;;20.08;7.40;;;;;;;4.02;100.00;103524.88;5248105;28;20389;-78
2024/01/27 09:39:17;;;;;;;17.60;7.00;;;;;;;4.08;100.00;103538.59;5257318;28;20029;-79
2024/01/27 09:41:50;;;;;;;13.23;6.68;;;;;;;4.13;100.00;103549.78;5264951;28;20032;-79
2024/01/27 09:44:25;;;;;;;20.25;7.07;;;;;;;4.24;100.00;103546.16;5252122;28;20028;-79
2024/01/27 09:46:57;;;;;;;16.55;7.00;;;;;;;4.24;100.00;103546.16;5257145;28;20045;-78
2024/01/27 09:49:30;;;;;;;14.60;7.63;;;;;;;4.26;100.00;103547.00;5254339;28;20628;-78
2024/01/27 09:52:02;;;;;;;17.70;7.78;;;;;;;4.26;100.00;103550.44;5246894;28;20060;-78
2024/01/27 09:54:36;;;;;;;15.02;6.82;;;;;;;4.27;100.00;103538.31;5247354;28;20040;-78
2024/01/27 09:57:09;;;;;;;15.27;7.28;;;;;;;4.39;100.00;103545.91;5256876;28;20036;-78
2024/01/27 09:59:44;;;;;;;17.55;7.03;;;;;;;4.41;100.00;103551.09;5250048;28;20489;-78
2024/01/27 10:02:18;;;;;;;15.68;7.47;;;;;;;4.52;100.00;103565.63;5253604;28;20024;-78
2024/01/27 10:04:50;;;;;;;15.82;6.93;;;;;;;4.55;100.00;103569.91;5256481;28;20707;-78
2024/01/27 10:07:23;;;;;;;16.60;7.55;;;;;;;4.59;100.00;103551.66;5258715;28;20021;-78
2024/01/27 10:09:55;;;;;;;16.55;6.45;;;;;;;4.76;100.00;103563.50;5259638;28;20032;-78
2024/01/27 10:12:28;;;;;;;14.82;6.30;;;;;;;4.84;100.00;103559.88;5257601;28;20462;-78
2024/01/27 10:15:00;;;;;;;14.05;6.50;;;;;;;4.90;100.00;103558.09;5257511;28;20041;-78
2024/01/27 10:17:36;;;;;;;13.38;6.65;;;;;;;4.92;100.00;103562.34;5251154;28;20028;-77
2024/01/27 10:20:09;;;;;;;17.17;6.88;;;;;;;4.98;100.00;103558.81;5252255;28;20037;-77
2024/01/27 10:22:44;;;;;;;15.77;6.88;;;;;;;5.11;100.00;103570.69;5258838;28;20929;-77
2024/01/27 10:25:16;;;;;;;17.20;7.55;;;;;;;5.23;100.00;103572.22;5251707;28;20427;-77
2024/01/27 10:27:48;;;;;;;18.98;6.30;;;;;;;5.32;100.00;103574.63;5252290;28;20029;-77
2024/01/27 10:30:20;;;;;;;19.10;7.43;;;;;;;5.39;100.00;103562.38;5262061;28;20037;-77
2024/01/27 10:32:59;;;;;;;11.55;5.68;;;;;;;5.58;100.00;103567.19;5261775;28;20367;-77
2024/01/27 10:35:31;;;;;;;13.20;5.72;;;;;;;5.70;100.00;103579.06;5256717;28;20032;-77
2024/01/27 10:38:03;;;;;;;18.13;6.57;;;;;;;5.77;100.00;103578.06;5261032;28;20083;-77
2024/01/27 10:40:36;;;;;;;13.82;5.95;;;;;;;5.83;100.00;103571.88;5252756;28;20037;-77
2024/01/27 10:43:08;;;;;;;19.83;6.38;;;;;;;6.00;100.00;103569.81;5251995;28;20387;-76
2024/01/27 10:45:41;;;;;;;13.02;6.72;;;;;;;6.08;100.00;103567.03;5249847;28;20094;-76
2024/01/27 10:48:14;;;;;;;15.10;6.20;;;;;;;6.30;100.00;103565.66;5254000;28;20033;-76
2024/01/27 10:50:48;;;;;;;18.02;6.50;;;;;;;6.34;100.00;103571.66;5250529;28;20033;-76
2024/01/27 10:53:24;;;;;;;17.25;5.95;;;;;;;6.50;100.00;103573.00;5260973;28;20036;-76
2024/01/27 10:55:57;;;;;;;17.60;7.13;;;;;;;6.54;100.00;103563.34;5254831;28;20044;-76
2024/01/27 10:58:31;;;;;;;17.23;6.80;;;;;;;6.69;100.00;103560.38;5261549;28;20037;-76
2024/01/27 11:01:04;;;;;;;15.13;6.10;;;;;;;6.71;100.00;103556.00;5257919;28;20033;-76
2024/01/27 11:03:40;;;;;;;20.25;6.80;;;;;;;6.88;100.00;103555.56;5256178;28;20036;-76
2024/01/27 11:06:13;;;;;;;15.98;5.30;;;;;;;6.93;100.00;103548.50;5261225;28;20044;-76
2024/01/27 11:08:46;;;;;;;14.00;6.43;;;;;;;7.06;100.00;103547.25;5258841;28;20039;-77
2024/01/27 11:11:18;;;;;;;15.18;5.03;;;;;;;7.11;100.00;103541.06;5253193;28;20557;-76
2024/01/27 11:13:51;;;;;;;16.40;6.10;;;;;;;7.23;100.00;103543.31;5255786;28;20039;-76
2024/01/27 11:16:23;;;;;;;18.93;6.10;;;;;;;7.24;100.00;103545.06;5252379;28;20033;-77
2024/01/27 11:18:55;;;;;;;17.75;6.68;;;;;;;7.34;100.00;103543.88;5254241;28;20295;-76
2024/01/27 11:21:27;;;;;;;13.68;4.85;;;;;;;7.34;100.00;103543.88;5257199;28;20032;-76
2024/01/27 11:23:59;;;;;;;12.05;5.13;;;;;;;7.37;100.00;103537.72;5257940;28;20048;-77
2024/01/27 11:26:31;;;;;;;9.88;5.13;;;;;;;7.48;100.00;103546.97;5251833;28;20038;-77
2024/01/27 11:29:07;;;;;;;12.43;5.25;;;;;;;7.66;100.00;103547.34;5249300;28;20032;-77
2024/01/27 11:31:41;;;;;;;15.35;5.38;;;;;;;7.65;100.00;103543.88;5253576;28;20043;-77
2024/01/27 11:34:16;;;;;;;17.33;5.97;;;;;;;7.67;100.00;103539.47;5252256;28;20583;-77
2024/01/27 11:36:48;;;;;;;12.90;5.38;;;;;;;7.73;100.00;103535.84;5251071;28;20028;-77
2024/01/27 11:39:27;;;;;;;16.70;5.20;;;;;;;7.88;100.00;103530.16;5255104;28;20037;-78